METAR AND TAF INFORMATION
METAR FOR EHWO
ADDS - METARS form results

(1423 UTC 18 July 2018)
Data provider http://aviationweather.gov/adds/metars/
 
METAR text: EHWO 181402Z AUTO VRB09KT 9999 BKN320 25/13 Q1018 BLU
Conditions at: EHWO (WOENSDRECHT RNLA, NL) observed 1402 UTC 18 July 2018
Temperature: 25.0°C (77°F)
Dewpoint: 13.0°C (55°F) [RH = 47%]
Pressure (altimeter): 30.06 inches Hg (1018.0 mb)
Winds: variable direction winds at 10 MPH (9 knots; 4.7 m/s)
Visibility: 6 or more miles (10+ km)
Ceiling: 32000 feet AGL
Clouds: broken clouds at 32000 feet AGL
Weather: no significant weather observed at this time

METAR text: EHWO 181355Z AUTO 28007KT 220V340 9999 FEW320 25/13 Q1018 BLU 30008KT CAVOK
Conditions at: EHWO (WOENSDRECHT RNLA, NL) observed 1355 UTC 18 July 2018
Temperature: 25.0°C (77°F)
Dewpoint: 13.0°C (55°F) [RH = 47%]
Pressure (altimeter): 30.06 inches Hg (1018.0 mb)
Winds: from the W (280 degrees) at 8 MPH (7 knots; 3.6 m/s)
Visibility: 6 or more miles (10+ km)
Ceiling: at least 12,000 feet AGL
Clouds: few clouds at 32000 feet AGL
Weather: no significant weather observed at this time

METAR text: EHWO 181350Z AUTO 29007KT 220V340 9999 FEW330 24/13 Q1018 BLU 30008KT CAVOK
Conditions at: EHWO (WOENSDRECHT RNLA, NL) observed 1350 UTC 18 July 2018
Temperature: 24.0°C (75°F)
Dewpoint: 13.0°C (55°F) [RH = 50%]
Pressure (altimeter): 30.06 inches Hg (1018.0 mb)
Winds: from the WNW (290 degrees) at 8 MPH (7 knots; 3.6 m/s)
Visibility: 6 or more miles (10+ km)
Ceiling: at least 12,000 feet AGL
Clouds: few clouds at 33000 feet AGL
Weather: no significant weather observed at this time

METAR text: EHWO 181325Z AUTO VRB08KT 9999 SCT058 24/12 Q1018 BLU 30008KT 9999 SCT055
Conditions at: EHWO (WOENSDRECHT RNLA, NL) observed 1325 UTC 18 July 2018
Temperature: 24.0°C (75°F)
Dewpoint: 12.0°C (54°F) [RH = 47%]
Pressure (altimeter): 30.06 inches Hg (1018.0 mb)
Winds: variable direction winds at 9 MPH (8 knots; 4.2 m/s)
Visibility: 6 or more miles (10+ km)
Ceiling: at least 12,000 feet AGL
Clouds: scattered clouds at 5800 feet AGL
scattered clouds at 5500 feet AGL
Weather: no significant weather observed at this time

Forecast for: EHWO (WOENSDRECHT RNLA, NL)
Text: TAF EHWO 180830Z 1809/1821 27007KT CAVOK
Forecast period: 0900 to 1800 UTC 18 July 2018
Forecast type: FROM: standard forecast or significant change
Winds: from the W (270 degrees) at 8 MPH (7 knots; 3.6 m/s)
Visibility: 6 or more miles (10+ km)
Clouds: not forecast
Weather: NSW  (no significant weather)
Text: BECMG 1818/1821 VRB03KT
Forecast period: 1800 to 2100 UTC 18 July 2018
Forecast type: BECOMING: Conditions expected to become as follows by 2100 UTC 18 July 2018
Winds: variable direction winds at 3 MPH (3 knots; 1.6 m/s)
Visibility: 6 or more miles (10+ km)
Weather: NSW  (no significant weather)

 AIRPORT MAP

 RUNWAY INFORMATION
Runway 07 Runway length 7996 ft Runway width 148 ft
Runway elevation 39 ft Runway displaced threshold 0 ft Runway heading 69
Runway 25 Runway length 7996 ft Runway width 148 ft
Runway elevation 63 ft Runway displaced threshold 0 ft Runway heading 249

 AIRPORT FREQUENCIES
Type APP Name RAPCON WES Frequency 123.575 MHZ
Type ARR Name ARRIVAL Frequency 123.575 MHZ
Type TWR Name TWR Frequency 118.5 MHZ

 AIRPORT NEAR NAVIGATION AIDS
Type TACAN Name Woensdrecht Frequency 115000 KHZ